sensor_id;sensor_type;location;lat;lon;timestamp;pressure;altitude;pressure_sealevel;temperature;humidity
8697;BME280;4385;48.848;8.924;2023-05-08T00:01:09;97653.09;;;20.70;100.00
8697;BME280;4385;48.848;8.924;2023-05-08T00:03:35;97645.41;;;20.70;100.00
8697;BME280;4385;48.848;8.924;2023-05-08T00:06:04;97651.44;;;20.69;100.00
8697;BME280;4385;48.848;8.924;2023-05-08T00:08:30;97654.84;;;20.68;100.00
8697;BME280;4385;48.848;8.924;2023-05-08T00:10:55;97656.59;;;20.67;100.00
8697;BME280;4385;48.848;8.924;2023-05-08T00:13:20;97656.59;;;20.67;100.00
8697;BME280;4385;48.848;8.924;2023-05-08T00:15:45;97659.16;;;20.67;100.00
8697;BME280;4385;48.848;8.924;2023-05-08T00:18:11;97658.31;;;20.67;100.00
8697;BME280;4385;48.848;8.924;2023-05-08T00:20:36;97660.84;;;20.67;100.00
8697;BME280;4385;48.848;8.924;2023-05-08T00:23:02;97663.38;;;20.68;100.00
8697;BME280;4385;48.848;8.924;2023-05-08T00:25:27;97663.34;;;20.70;100.00
8697;BME280;4385;48.848;8.924;2023-05-08T00:27:54;97667.66;;;20.68;100.00
8697;BME280;4385;48.848;8.924;2023-05-08T00:30:20;97662.53;;;20.68;100.00
8697;BME280;4385;48.848;8.924;2023-05-08T00:32:46;97661.66;;;20.69;100.00
8697;BME280;4385;48.848;8.924;2023-05-08T00:35:11;97665.94;;;20.68;100.00
8697;BME280;4385;48.848;8.924;2023-05-08T00:37:36;97668.50;;;20.68;100.00
8697;BME280;4385;48.848;8.924;2023-05-08T00:40:05;97660.81;;;20.68;100.00
8697;BME280;4385;48.848;8.924;2023-05-08T00:42:30;97660.84;;;20.67;100.00
8697;BME280;4385;48.848;8.924;2023-05-08T00:44:56;97670.25;;;20.66;100.00
8697;BME280;4385;48.848;8.924;2023-05-08T00:47:21;97671.09;;;20.67;100.00
8697;BME280;4385;48.848;8.924;2023-05-08T00:49:47;97667.69;;;20.66;100.00
8697;BME280;4385;48.848;8.924;2023-05-08T00:52:13;97672.00;;;20.66;100.00
8697;BME280;4385;48.848;8.924;2023-05-08T00:54:38;97665.19;;;20.65;100.00
8697;BME280;4385;48.848;8.924;2023-05-08T00:57:07;97669.44;;;20.66;100.00
8697;BME280;4385;48.848;8.924;2023-05-08T00:59:34;97669.47;;;20.64;100.00
8697;BME280;4385;48.848;8.924;2023-05-08T01:02:00;97669.44;;;20.66;100.00
8697;BME280;4385;48.848;8.924;2023-05-08T01:04:26;97667.75;;;20.65;100.00
8697;BME280;4385;48.848;8.924;2023-05-08T01:06:52;97669.44;;;20.66;100.00
8697;BME280;4385;48.848;8.924;2023-05-08T01:09:17;97666.06;;;20.64;100.00
8697;BME280;4385;48.848;8.924;2023-05-08T01:11:54;97664.34;;;20.64;100.00
8697;BME280;4385;48.848;8.924;2023-05-08T01:14:46;97668.63;;;20.64;100.00
8697;BME280;4385;48.848;8.924;2023-05-08T01:17:23;97660.09;;;20.63;100.00
8697;BME280;4385;48.848;8.924;2023-05-08T01:25:44;97667.78;;;20.63;100.00
8697;BME280;4385;48.848;8.924;2023-05-08T01:31:42;97668.66;;;20.62;100.00
8697;BME280;4385;48.848;8.924;2023-05-08T01:34:18;97666.16;;;20.61;100.00
8697;BME280;4385;48.848;8.924;2023-05-08T01:36:59;97666.16;;;20.61;100.00
8697;BME280;4385;48.848;8.924;2023-05-08T01:45:08;97676.41;;;20.61;100.00
8697;BME280;4385;48.848;8.924;2023-05-08T01:47:36;97672.16;;;20.60;100.00
8697;BME280;4385;48.848;8.924;2023-05-08T01:50:12;97675.53;;;20.60;100.00
8697;BME280;4385;48.848;8.924;2023-05-08T01:52:43;97679.84;;;20.60;100.00
8697;BME280;4385;48.848;8.924;2023-05-08T01:55:12;97677.28;;;20.60;100.00
8697;BME280;4385;48.848;8.924;2023-05-08T01:57:45;97682.41;;;20.60;100.00
8697;BME280;4385;48.848;8.924;2023-05-08T02:00:13;97668.75;;;20.59;100.00
8697;BME280;4385;48.848;8.924;2023-05-08T02:02:41;97686.72;;;20.58;100.00
8697;BME280;4385;48.848;8.924;2023-05-08T02:05:08;97680.75;;;20.57;100.00
8697;BME280;4385;48.848;8.924;2023-05-08T02:07:34;97679.94;;;20.56;100.00
8697;BME280;4385;48.848;8.924;2023-05-08T02:10:02;97679.94;;;20.56;100.00
8697;BME280;4385;48.848;8.924;2023-05-08T02:12:30;97679.03;;;20.58;100.00
8697;BME280;4385;48.848;8.924;2023-05-08T02:14:56;97685.06;;;20.56;100.00
8697;BME280;4385;48.848;8.924;2023-05-08T02:17:23;97685.06;;;20.56;100.00
8697;BME280;4385;48.848;8.924;2023-05-08T02:19:50;97683.34;;;20.55;100.00
8697;BME280;4385;48.848;8.924;2023-05-08T02:22:18;97683.34;;;20.55;100.00
8697;BME280;4385;48.848;8.924;2023-05-08T02:24:45;97686.81;;;20.54;100.00
8697;BME280;4385;48.848;8.924;2023-05-08T02:27:11;97685.97;;;20.54;100.00
8697;BME280;4385;48.848;8.924;2023-05-08T02:29:37;97685.19;;;20.52;100.00
8697;BME280;4385;48.848;8.924;2023-05-08T02:32:02;97688.59;;;20.51;100.00
8697;BME280;4385;48.848;8.924;2023-05-08T02:34:29;97685.22;;;20.50;100.00
8697;BME280;4385;48.848;8.924;2023-05-08T02:36:56;97695.47;;;20.50;100.00
8697;BME280;4385;48.848;8.924;2023-05-08T02:39:25;97691.19;;;20.49;100.00
8697;BME280;4385;48.848;8.924;2023-05-08T02:41:52;97687.78;;;20.50;100.00
8697;BME280;4385;48.848;8.924;2023-05-08T02:44:18;97683.53;;;20.49;100.00
8697;BME280;4385;48.848;8.924;2023-05-08T02:47:01;97689.50;;;20.50;100.00
8697;BME280;4385;48.848;8.924;2023-05-08T02:49:43;97685.22;;;20.50;100.00
8697;BME280;4385;48.848;8.924;2023-05-08T02:52:12;97690.34;;;20.50;100.00
8697;BME280;4385;48.848;8.924;2023-05-08T02:57:29;97695.47;;;20.50;100.00
8697;BME280;4385;48.848;8.924;2023-05-08T02:59:59;97694.63;;;20.50;100.00
8697;BME280;4385;48.848;8.924;2023-05-08T03:02:42;97695.47;;;20.50;100.00
8697;BME280;4385;48.848;8.924;2023-05-08T03:05:37;97687.78;;;20.50;100.00
8697;BME280;4385;48.848;8.924;2023-05-08T03:08:06;97692.91;;;20.50;100.00
8697;BME280;4385;48.848;8.924;2023-05-08T03:10:33;97693.75;;;20.49;100.00
8697;BME280;4385;48.848;8.924;2023-05-08T03:13:02;97693.75;;;20.49;100.00
8697;BME280;4385;48.848;8.924;2023-05-08T03:15:36;97686.97;;;20.48;100.00
8697;BME280;4385;48.848;8.924;2023-05-08T03:18:06;97692.09;;;20.48;100.00
8697;BME280;4385;48.848;8.924;2023-05-08T03:20:36;97686.13;;;20.48;100.00
8697;BME280;4385;48.848;8.924;2023-05-08T03:23:04;97687.81;;;20.49;100.00
8697;BME280;4385;48.848;8.924;2023-05-08T03:25:30;97686.97;;;20.48;100.00
8697;BME280;4385;48.848;8.924;2023-05-08T03:27:57;97675.88;;;20.48;100.00
8697;BME280;4385;48.848;8.924;2023-05-08T03:30:24;97677.63;;;20.47;100.00
8697;BME280;4385;48.848;8.924;2023-05-08T03:32:51;97681.84;;;20.48;100.00
8697;BME280;4385;48.848;8.924;2023-05-08T03:35:17;97685.31;;;20.47;100.00
8697;BME280;4385;48.848;8.924;2023-05-08T03:37:44;97685.31;;;20.47;100.00
8697;BME280;4385;48.848;8.924;2023-05-08T03:40:10;97683.59;;;20.46;100.00
8697;BME280;4385;48.848;8.924;2023-05-08T03:42:36;97687.91;;;20.46;100.00
8697;BME280;4385;48.848;8.924;2023-05-08T03:45:02;97690.47;;;20.46;100.00
8697;BME280;4385;48.848;8.924;2023-05-08T03:47:29;97687.06;;;20.45;100.00
8697;BME280;4385;48.848;8.924;2023-05-08T03:49:55;97685.31;;;20.47;100.00
8697;BME280;4385;48.848;8.924;2023-05-08T03:52:21;97690.47;;;20.46;100.00
8697;BME280;4385;48.848;8.924;2023-05-08T03:54:47;97684.50;;;20.45;100.00
8697;BME280;4385;48.848;8.924;2023-05-08T03:57:12;97687.06;;;20.45;100.00
8697;BME280;4385;48.848;8.924;2023-05-08T04:04:41;97690.50;;;20.44;100.00
8697;BME280;4385;48.848;8.924;2023-05-08T04:12:30;97693.94;;;20.43;100.00
8697;BME280;4385;48.848;8.924;2023-05-08T04:15:21;97693.94;;;20.43;100.00
8697;BME280;4385;48.848;8.924;2023-05-08T04:18:07;97700.75;;;20.44;100.00
8697;BME280;4385;48.848;8.924;2023-05-08T04:20:34;97700.75;;;20.44;100.00
8697;BME280;4385;48.848;8.924;2023-05-08T04:23:03;97704.13;;;20.44;100.00
8697;BME280;4385;48.848;8.924;2023-05-08T04:25:32;97712.66;;;20.45;100.00
8697;BME280;4385;48.848;8.924;2023-05-08T04:28:00;97712.66;;;20.45;100.00
8697;BME280;4385;48.848;8.924;2023-05-08T04:30:27;97710.13;;;20.43;100.00
8697;BME280;4385;48.848;8.924;2023-05-08T04:32:53;97712.75;;;20.42;100.00
8697;BME280;4385;48.848;8.924;2023-05-08T04:35:20;97719.53;;;20.43;100.00
8697;BME280;4385;48.848;8.924;2023-05-08T04:37:46;97714.44;;;20.41;100.00
8697;BME280;4385;48.848;8.924;2023-05-08T04:40:12;97719.56;;;20.41;100.00
8697;BME280;4385;48.848;8.924;2023-05-08T04:42:37;97717.84;;;20.42;100.00
8697;BME280;4385;48.848;8.924;2023-05-08T04:45:07;97717.84;;;20.42;100.00
8697;BME280;4385;48.848;8.924;2023-05-08T04:47:32;97727.25;;;20.41;100.00
8697;BME280;4385;48.848;8.924;2023-05-08T04:49:58;97725.56;;;20.40;100.00
8697;BME280;4385;48.848;8.924;2023-05-08T04:52:23;97729.00;;;20.41;100.00
8697;BME280;4385;48.848;8.924;2023-05-08T04:54:48;97724.72;;;20.40;100.00
8697;BME280;4385;48.848;8.924;2023-05-08T04:57:13;97729.84;;;20.40;100.00
8697;BME280;4385;48.848;8.924;2023-05-08T04:59:39;97727.31;;;20.38;100.00
8697;BME280;4385;48.848;8.924;2023-05-08T05:02:04;97733.28;;;20.39;100.00
8697;BME280;4385;48.848;8.924;2023-05-08T05:04:32;97724.72;;;20.40;100.00
8697;BME280;4385;48.848;8.924;2023-05-08T05:06:58;97730.69;;;20.40;100.00
8697;BME280;4385;48.848;8.924;2023-05-08T05:09:23;97734.97;;;20.40;100.00
8697;BME280;4385;48.848;8.924;2023-05-08T05:11:50;97736.69;;;20.39;100.00
8697;BME280;4385;48.848;8.924;2023-05-08T05:14:15;97735.81;;;20.40;100.00
8697;BME280;4385;48.848;8.924;2023-05-08T05:16:40;97736.66;;;20.41;100.00
8697;BME280;4385;48.848;8.924;2023-05-08T05:19:06;97740.09;;;20.40;100.00
8697;BME280;4385;48.848;8.924;2023-05-08T05:21:31;97739.25;;;20.39;100.00
8697;BME280;4385;48.848;8.924;2023-05-08T05:23:57;97744.34;;;20.41;100.00
8697;BME280;4385;48.848;8.924;2023-05-08T05:26:22;97748.66;;;20.39;100.00
8697;BME280;4385;48.848;8.924;2023-05-08T05:28:47;97746.94;;;20.39;100.00
8697;BME280;4385;48.848;8.924;2023-05-08T05:31:13;97748.59;;;20.40;100.00
8697;BME280;4385;48.848;8.924;2023-05-08T05:33:38;97747.75;;;20.40;100.00
8697;BME280;4385;48.848;8.924;2023-05-08T05:36:03;97750.28;;;20.41;100.00
8697;BME280;4385;48.848;8.924;2023-05-08T05:38:29;97746.91;;;20.41;100.00
8697;BME280;4385;48.848;8.924;2023-05-08T05:40:54;97746.91;;;20.41;100.00
8697;BME280;4385;48.848;8.924;2023-05-08T05:43:19;97752.03;;;20.41;100.00
8697;BME280;4385;48.848;8.924;2023-05-08T05:45:45;97751.13;;;20.42;100.00
8697;BME280;4385;48.848;8.924;2023-05-08T05:48:10;97750.25;;;20.43;100.00
8697;BME280;4385;48.848;8.924;2023-05-08T05:50:36;97751.94;;;20.44;100.00
8697;BME280;4385;48.848;8.924;2023-05-08T05:53:02;97756.16;;;20.45;100.00
8697;BME280;4385;48.848;8.924;2023-05-08T05:55:27;97762.91;;;20.48;100.00
8697;BME280;4385;48.848;8.924;2023-05-08T05:57:53;97757.75;;;20.49;100.00
8697;BME280;4385;48.848;8.924;2023-05-08T06:00:18;97760.31;;;20.49;100.00
8697;BME280;4385;48.848;8.924;2023-05-08T06:02:45;97758.56;;;20.51;100.00
8697;BME280;4385;48.848;8.924;2023-05-08T06:05:10;97761.09;;;20.53;100.00
8697;BME280;4385;48.848;8.924;2023-05-08T06:07:36;97762.75;;;20.54;100.00
8697;BME280;4385;48.848;8.924;2023-05-08T06:10:02;97762.72;;;20.55;100.00
8697;BME280;4385;48.848;8.924;2023-05-08T06:12:28;97760.06;;;20.59;100.00
8697;BME280;4385;48.848;8.924;2023-05-08T06:14:53;97766.91;;;20.60;100.00
8697;BME280;4385;48.848;8.924;2023-05-08T06:17:19;97769.38;;;20.63;100.00
8697;BME280;4385;48.848;8.924;2023-05-08T06:19:45;97768.47;;;20.64;100.00
8697;BME280;4385;48.848;8.924;2023-05-08T06:22:18;97771.84;;;20.66;100.00
8697;BME280;4385;48.848;8.924;2023-05-08T06:24:47;97773.53;;;20.67;100.00
8697;BME280;4385;48.848;8.924;2023-05-08T06:27:14;97778.56;;;20.70;100.00
8697;BME280;4385;48.848;8.924;2023-05-08T06:29:40;97778.47;;;20.73;100.00
8697;BME280;4385;48.848;8.924;2023-05-08T06:32:05;97779.31;;;20.74;100.00
8697;BME280;4385;48.848;8.924;2023-05-08T06:34:31;97781.81;;;20.77;100.00
8697;BME280;4385;48.848;8.924;2023-05-08T06:36:56;97770.63;;;20.79;100.00
8697;BME280;4385;48.848;8.924;2023-05-08T06:39:21;97776.47;;;20.85;100.00
8697;BME280;4385;48.848;8.924;2023-05-08T06:41:47;97778.16;;;20.86;100.00
8697;BME280;4385;48.848;8.924;2023-05-08T06:44:13;97782.38;;;20.87;100.00
8697;BME280;4385;48.848;8.924;2023-05-08T06:46:38;97783.28;;;20.86;100.00
8697;BME280;4385;48.848;8.924;2023-05-08T06:49:04;97779.00;;;20.86;100.00
8697;BME280;4385;48.848;8.924;2023-05-08T06:51:29;97775.50;;;20.89;100.00
8697;BME280;4385;48.848;8.924;2023-05-08T06:53:57;97772.91;;;20.90;100.00
8697;BME280;4385;48.848;8.924;2023-05-08T06:56:23;97767.75;;;20.92;100.00
8697;BME280;4385;48.848;8.924;2023-05-08T06:58:48;97772.00;;;20.93;100.00
8697;BME280;4385;48.848;8.924;2023-05-08T07:01:14;97773.66;;;20.96;100.00
8697;BME280;4385;48.848;8.924;2023-05-08T07:03:39;97775.22;;;21.00;100.00
8697;BME280;4385;48.848;8.924;2023-05-08T07:06:06;97774.34;;;21.01;100.00
8697;BME280;4385;48.848;8.924;2023-05-08T07:08:33;97773.47;;;21.02;100.00
8697;BME280;4385;48.848;8.924;2023-05-08T07:10:58;97776.72;;;21.07;100.00
8697;BME280;4385;48.848;8.924;2023-05-08T07:13:24;97773.38;;;21.05;100.00
8697;BME280;4385;48.848;8.924;2023-05-08T07:15:49;97774.22;;;21.05;100.00
8697;BME280;4385;48.848;8.924;2023-05-08T07:18:15;97776.78;;;21.05;100.00
8697;BME280;4385;48.848;8.924;2023-05-08T07:20:40;97775.00;;;21.08;100.00
8697;BME280;4385;48.848;8.924;2023-05-08T07:23:05;97783.56;;;21.08;100.00
8697;BME280;4385;48.848;8.924;2023-05-08T07:25:31;97780.94;;;21.10;100.00
8697;BME280;4385;48.848;8.924;2023-05-08T07:27:56;97787.72;;;21.11;100.00
8697;BME280;4385;48.848;8.924;2023-05-08T07:30:22;97777.41;;;21.14;100.00
8697;BME280;4385;48.848;8.924;2023-05-08T07:32:47;97789.28;;;21.16;100.00
8697;BME280;4385;48.848;8.924;2023-05-08T07:35:12;97791.00;;;21.16;100.00
8697;BME280;4385;48.848;8.924;2023-05-08T07:37:38;97796.91;;;21.18;100.00
8697;BME280;4385;48.848;8.924;2023-05-08T07:40:04;97789.19;;;21.20;100.00
8697;BME280;4385;48.848;8.924;2023-05-08T07:42:29;97790.94;;;21.19;100.00
8697;BME280;4385;48.848;8.924;2023-05-08T07:44:54;97789.94;;;21.23;100.00
8697;BME280;4385;48.848;8.924;2023-05-08T07:47:20;97792.50;;;21.23;100.00
8697;BME280;4385;48.848;8.924;2023-05-08T07:49:45;97794.97;;;21.26;100.00
8697;BME280;4385;48.848;8.924;2023-05-08T07:52:10;97799.22;;;21.27;100.00
8697;BME280;4385;48.848;8.924;2023-05-08T07:54:36;97795.78;;;21.28;100.00
8697;BME280;4385;48.848;8.924;2023-05-08T07:57:01;97795.75;;;21.30;100.00
8697;BME280;4385;48.848;8.924;2023-05-08T07:59:26;97793.19;;;21.30;100.00
8697;BME280;4385;48.848;8.924;2023-05-08T08:01:51;97793.09;;;21.33;100.00
8697;BME280;4385;48.848;8.924;2023-05-08T08:04:17;97787.97;;;21.33;100.00
8697;BME280;4385;48.848;8.924;2023-05-08T08:06:42;97791.38;;;21.34;100.00
8697;BME280;4385;48.848;8.924;2023-05-08T08:09:08;97790.47;;;21.35;100.00
8697;BME280;4385;48.848;8.924;2023-05-08T08:11:33;97794.69;;;21.37;100.00
8697;BME280;4385;48.848;8.924;2023-05-08T08:13:58;97792.06;;;21.39;100.00
8697;BME280;4385;48.848;8.924;2023-05-08T08:16:24;97790.31;;;21.41;100.00
8697;BME280;4385;48.848;8.924;2023-05-08T08:18:49;97797.06;;;21.43;100.00
8697;BME280;4385;48.848;8.924;2023-05-08T08:21:17;97796.19;;;21.45;100.00
8697;BME280;4385;48.848;8.924;2023-05-08T08:23:42;97794.34;;;21.48;100.00
8697;BME280;4385;48.848;8.924;2023-05-08T08:26:07;97791.78;;;21.48;100.00
8697;BME280;4385;48.848;8.924;2023-05-08T08:28:32;97796.06;;;21.49;100.00
8697;BME280;4385;48.848;8.924;2023-05-08T08:30:58;97795.22;;;21.49;100.00
8697;BME280;4385;48.848;8.924;2023-05-08T08:33:23;97792.63;;;21.49;100.00
8697;BME280;4385;48.848;8.924;2023-05-08T08:35:51;97793.50;;;21.49;100.00
8697;BME280;4385;48.848;8.924;2023-05-08T08:38:16;97799.44;;;21.50;100.00
8697;BME280;4385;48.848;8.924;2023-05-08T08:40:41;97801.13;;;21.51;100.00
8697;BME280;4385;48.848;8.924;2023-05-08T08:43:10;97801.94;;;21.51;100.00
8697;BME280;4385;48.848;8.924;2023-05-08T08:45:36;97802.81;;;21.52;100.00
8697;BME280;4385;48.848;8.924;2023-05-08T08:48:02;97802.81;;;21.52;100.00
8697;BME280;4385;48.848;8.924;2023-05-08T08:50:32;97799.34;;;21.53;100.00
8697;BME280;4385;48.848;8.924;2023-05-08T08:53:21;97801.13;;;21.51;100.00
8697;BME280;4385;48.848;8.924;2023-05-08T08:55:49;97803.75;;;21.49;100.00
8697;BME280;4385;48.848;8.924;2023-05-08T08:58:23;97804.66;;;21.47;100.00
8697;BME280;4385;48.848;8.924;2023-05-08T09:00:50;97811.47;;;21.48;100.00
8697;BME280;4385;48.848;8.924;2023-05-08T09:03:16;97812.31;;;21.48;100.00
8697;BME280;4385;48.848;8.924;2023-05-08T09:05:42;97806.25;;;21.51;100.00
8697;BME280;4385;48.848;8.924;2023-05-08T09:08:09;97816.47;;;21.52;100.00
8697;BME280;4385;48.848;8.924;2023-05-08T09:10:35;97822.47;;;21.51;100.00
8697;BME280;4385;48.848;8.924;2023-05-08T09:13:02;97816.44;;;21.54;100.00
8697;BME280;4385;48.848;8.924;2023-05-08T09:15:27;97813.91;;;21.52;100.00
8697;BME280;4385;48.848;8.924;2023-05-08T09:17:53;97815.56;;;21.53;100.00
8697;BME280;4385;48.848;8.924;2023-05-08T09:20:18;97815.56;;;21.53;100.00
8697;BME280;4385;48.848;8.924;2023-05-08T09:22:44;97819.81;;;21.54;100.00
8697;BME280;4385;48.848;8.924;2023-05-08T09:25:10;97814.69;;;21.54;100.00
8697;BME280;4385;48.848;8.924;2023-05-08T09:27:35;97819.00;;;21.54;100.00
8697;BME280;4385;48.848;8.924;2023-05-08T09:30:04;97819.81;;;21.54;100.00
8697;BME280;4385;48.848;8.924;2023-05-08T09:32:32;97815.50;;;21.57;100.00
8697;BME280;4385;48.848;8.924;2023-05-08T09:34:58;97814.63;;;21.56;100.00
8697;BME280;4385;48.848;8.924;2023-05-08T09:37:25;97819.03;;;21.52;100.00
8697;BME280;4385;48.848;8.924;2023-05-08T09:39:50;97828.50;;;21.50;100.00
8697;BME280;4385;48.848;8.924;2023-05-08T09:42:16;97830.19;;;21.50;100.00
8697;BME280;4385;48.848;8.924;2023-05-08T09:44:52;97820.00;;;21.48;100.00
8697;BME280;4385;48.848;8.924;2023-05-08T09:47:24;97828.53;;;21.49;100.00
8697;BME280;4385;48.848;8.924;2023-05-08T09:52:24;97827.69;;;21.48;100.00
8697;BME280;4385;48.848;8.924;2023-05-08T09:55:01;97827.69;;;21.48;100.00
8697;BME280;4385;48.848;8.924;2023-05-08T09:57:28;97815.66;;;21.50;100.00
8697;BME280;4385;48.848;8.924;2023-05-08T10:00:11;97829.38;;;21.49;100.00
8697;BME280;4385;48.848;8.924;2023-05-08T10:02:41;97820.78;;;21.50;100.00
8697;BME280;4385;48.848;8.924;2023-05-08T10:05:33;97824.16;;;21.52;100.00
8697;BME280;4385;48.848;8.924;2023-05-08T10:08:19;97820.72;;;21.53;100.00
8697;BME280;4385;48.848;8.924;2023-05-08T10:10:45;97825.75;;;21.57;100.00
8697;BME280;4385;48.848;8.924;2023-05-08T10:13:11;97825.75;;;21.57;100.00
8697;BME280;4385;48.848;8.924;2023-05-08T10:15:37;97820.56;;;21.58;100.00
8697;BME280;4385;48.848;8.924;2023-05-08T10:18:06;97827.41;;;21.58;100.00
8697;BME280;4385;48.848;8.924;2023-05-08T10:20:34;97824.84;;;21.58;100.00
8697;BME280;4385;48.848;8.924;2023-05-08T10:23:00;97828.31;;;21.57;100.00
8697;BME280;4385;48.848;8.924;2023-05-08T10:25:31;97826.63;;;21.55;100.00
8697;BME280;4385;48.848;8.924;2023-05-08T10:28:09;97822.38;;;21.54;100.00
8697;BME280;4385;48.848;8.924;2023-05-08T10:30:37;97824.06;;;21.55;100.00
8697;BME280;4385;48.848;8.924;2023-05-08T10:33:09;97827.47;;;21.56;100.00
8697;BME280;4385;48.848;8.924;2023-05-08T10:35:37;97822.38;;;21.54;100.00
8697;BME280;4385;48.848;8.924;2023-05-08T10:38:03;97820.72;;;21.53;100.00
8697;BME280;4385;48.848;8.924;2023-05-08T10:40:29;97825.84;;;21.53;100.00
8697;BME280;4385;48.848;8.924;2023-05-08T10:42:55;97831.00;;;21.52;100.00
8697;BME280;4385;48.848;8.924;2023-05-08T10:45:20;97825.94;;;21.50;100.00
8697;BME280;4385;48.848;8.924;2023-05-08T10:48:10;97824.22;;;21.51;100.00
8697;BME280;4385;48.848;8.924;2023-05-08T10:50:45;97810.53;;;21.50;100.00
8697;BME280;4385;48.848;8.924;2023-05-08T10:53:24;97816.53;;;21.51;100.00
8697;BME280;4385;48.848;8.924;2023-05-08T10:55:54;97817.34;;;21.51;100.00
8697;BME280;4385;48.848;8.924;2023-05-08T11:03:16;97814.81;;;21.50;100.00
8697;BME280;4385;48.848;8.924;2023-05-08T11:05:49;97807.19;;;21.48;100.00
8697;BME280;4385;48.848;8.924;2023-05-08T11:08:17;97810.63;;;21.47;100.00
8697;BME280;4385;48.848;8.924;2023-05-08T11:13:35;97810.63;;;21.47;100.00
8697;BME280;4385;48.848;8.924;2023-05-08T11:16:01;97811.53;;;21.46;100.00
8697;BME280;4385;48.848;8.924;2023-05-08T11:18:27;97810.72;;;21.44;100.00
8697;BME280;4385;48.848;8.924;2023-05-08T11:21:01;97806.50;;;21.43;100.00
8697;BME280;4385;48.848;8.924;2023-05-08T11:23:34;97806.53;;;21.41;100.00
8697;BME280;4385;48.848;8.924;2023-05-08T11:28:27;97803.03;;;21.44;100.00
8697;BME280;4385;48.848;8.924;2023-05-08T11:30:55;97799.56;;;21.45;100.00
8697;BME280;4385;48.848;8.924;2023-05-08T11:33:21;97797.00;;;21.45;100.00
8697;BME280;4385;48.848;8.924;2023-05-08T11:35:50;97801.28;;;21.46;100.00
8697;BME280;4385;48.848;8.924;2023-05-08T11:38:33;97795.25;;;21.47;100.00
8697;BME280;4385;48.848;8.924;2023-05-08T11:43:30;97790.88;;;21.51;100.00
8697;BME280;4385;48.848;8.924;2023-05-08T11:46:13;97789.94;;;21.53;100.00
8697;BME280;4385;48.848;8.924;2023-05-08T11:48:39;97792.47;;;21.55;100.00
8697;BME280;4385;48.848;8.924;2023-05-08T11:51:05;97785.63;;;21.55;100.00
8697;BME280;4385;48.848;8.924;2023-05-08T11:53:31;97782.97;;;21.59;100.00
8697;BME280;4385;48.848;8.924;2023-05-08T11:55:56;97784.66;;;21.58;100.00
8697;BME280;4385;48.848;8.924;2023-05-08T11:58:22;97779.50;;;21.60;100.00
8697;BME280;4385;48.848;8.924;2023-05-08T12:00:48;97775.13;;;21.63;100.00
8697;BME280;4385;48.848;8.924;2023-05-08T12:03:15;97782.69;;;21.68;100.00
8697;BME280;4385;48.848;8.924;2023-05-08T12:05:41;97777.44;;;21.71;100.00
8697;BME280;4385;48.848;8.924;2023-05-08T12:08:07;97782.50;;;21.74;100.00
8697;BME280;4385;48.848;8.924;2023-05-08T12:10:59;97783.25;;;21.78;100.00
8697;BME280;4385;48.848;8.924;2023-05-08T12:13:28;97786.59;;;21.80;100.00
8697;BME280;4385;48.848;8.924;2023-05-08T12:15:56;97793.41;;;21.81;100.00
8697;BME280;4385;48.848;8.924;2023-05-08T12:18:23;97783.94;;;21.83;100.00
8697;BME280;4385;48.848;8.924;2023-05-08T12:20:54;97790.69;;;21.86;100.00
8697;BME280;4385;48.848;8.924;2023-05-08T12:23:21;97794.00;;;21.89;100.00
8697;BME280;4385;48.848;8.924;2023-05-08T12:25:46;97782.03;;;21.90;100.00
8697;BME280;4385;48.848;8.924;2023-05-08T12:28:11;97797.38;;;21.91;100.00
8697;BME280;4385;48.848;8.924;2023-05-08T12:30:37;97791.34;;;21.92;100.00
8697;BME280;4385;48.848;8.924;2023-05-08T12:33:03;97785.38;;;21.92;100.00
8697;BME280;4385;48.848;8.924;2023-05-08T12:35:30;97792.19;;;21.93;100.00
8697;BME280;4385;48.848;8.924;2023-05-08T12:38:00;97792.19;;;21.93;100.00
8697;BME280;4385;48.848;8.924;2023-05-08T12:40:29;97789.59;;;21.95;100.00
8697;BME280;4385;48.848;8.924;2023-05-08T12:42:56;97788.63;;;21.97;100.00
8697;BME280;4385;48.848;8.924;2023-05-08T12:45:25;97787.78;;;21.97;100.00
8697;BME280;4385;48.848;8.924;2023-05-08T12:47:53;97791.16;;;21.99;100.00
8697;BME280;4385;48.848;8.924;2023-05-08T12:50:20;97793.66;;;22.00;100.00
8697;BME280;4385;48.848;8.924;2023-05-08T12:52:46;97797.91;;;22.01;100.00
8697;BME280;4385;48.848;8.924;2023-05-08T12:55:33;97798.72;;;22.03;100.00
8697;BME280;4385;48.848;8.924;2023-05-08T12:58:11;97797.81;;;22.04;100.00
8697;BME280;4385;48.848;8.924;2023-05-08T13:00:45;97790.09;;;22.04;100.00
8697;BME280;4385;48.848;8.924;2023-05-08T13:03:12;97797.81;;;22.04;100.00
8697;BME280;4385;48.848;8.924;2023-05-08T13:05:43;97794.31;;;22.07;100.00
8697;BME280;4385;48.848;8.924;2023-05-08T13:08:09;97790.00;;;22.08;100.00
8697;BME280;4385;48.848;8.924;2023-05-08T13:13:07;97785.72;;;22.08;100.00
8697;BME280;4385;48.848;8.924;2023-05-08T13:15:33;97792.56;;;22.08;100.00
8697;BME280;4385;48.848;8.924;2023-05-08T13:17:59;97787.44;;;22.08;100.00
8697;BME280;4385;48.848;8.924;2023-05-08T13:20:24;97782.38;;;22.06;100.00
8697;BME280;4385;48.848;8.924;2023-05-08T13:22:50;97790.00;;;22.08;100.00
8697;BME280;4385;48.848;8.924;2023-05-08T13:25:15;97790.91;;;22.07;100.00
8697;BME280;4385;48.848;8.924;2023-05-08T13:27:40;97790.00;;;22.08;100.00
8697;BME280;4385;48.848;8.924;2023-05-08T13:30:06;97785.72;;;22.08;100.00
8697;BME280;4385;48.848;8.924;2023-05-08T13:32:32;97782.31;;;22.08;100.00
8697;BME280;4385;48.848;8.924;2023-05-08T13:34:57;97785.69;;;22.10;100.00
8697;BME280;4385;48.848;8.924;2023-05-08T13:37:22;97779.69;;;22.09;100.00
8697;BME280;4385;48.848;8.924;2023-05-08T13:39:47;97773.75;;;22.09;100.00
8697;BME280;4385;48.848;8.924;2023-05-08T13:42:13;97773.75;;;22.09;100.00
8697;BME280;4385;48.848;8.924;2023-05-08T13:44:38;97770.28;;;22.10;100.00
8697;BME280;4385;48.848;8.924;2023-05-08T13:47:03;97769.38;;;22.11;100.00
8697;BME280;4385;48.848;8.924;2023-05-08T13:49:28;97766.75;;;22.12;100.00
8697;BME280;4385;48.848;8.924;2023-05-08T13:51:54;97767.59;;;22.13;100.00
8697;BME280;4385;48.848;8.924;2023-05-08T13:54:19;97765.03;;;22.13;100.00
8697;BME280;4385;48.848;8.924;2023-05-08T13:56:45;97764.16;;;22.14;100.00
8697;BME280;4385;48.848;8.924;2023-05-08T13:59:12;97767.59;;;22.13;100.00